sensor_id;sensor_type;location;lat;lon;timestamp;pressure;altitude;pressure_sealevel;temperature;humidity
11001;BME280;5553;48.506;8.870;2023-03-01T00:01:55;97095.81;;;-3.95;100.00
11001;BME280;5553;48.506;8.870;2023-03-01T00:04:24;97095.25;;;-4.00;100.00
11001;BME280;5553;48.506;8.870;2023-03-01T00:06:52;97096.28;;;-4.03;100.00
11001;BME280;5553;48.506;8.870;2023-03-01T00:09:23;97097.34;;;-4.07;100.00
11001;BME280;5553;48.506;8.870;2023-03-01T00:11:52;97092.44;;;-4.12;100.00
11001;BME280;5553;48.506;8.870;2023-03-01T00:14:20;97091.53;;;-4.11;100.00
11001;BME280;5553;48.506;8.870;2023-03-01T00:16:49;97090.88;;;-4.14;100.00
11001;BME280;5553;48.506;8.870;2023-03-01T00:19:19;97088.41;;;-4.16;100.00
11001;BME280;5553;48.506;8.870;2023-03-01T00:21:47;97091.97;;;-4.18;100.00
11001;BME280;5553;48.506;8.870;2023-03-01T00:24:16;97091.25;;;-4.20;100.00
11001;BME280;5553;48.506;8.870;2023-03-01T00:26:47;97090.91;;;-4.30;100.00
11001;BME280;5553;48.506;8.870;2023-03-01T00:29:15;97094.38;;;-4.31;100.00
11001;BME280;5553;48.506;8.870;2023-03-01T00:31:44;97089.50;;;-4.52;100.00
11001;BME280;5553;48.506;8.870;2023-03-01T00:34:12;97093.66;;;-4.49;100.00
11001;BME280;5553;48.506;8.870;2023-03-01T00:36:40;97085.94;;;-4.49;100.00
11001;BME280;5553;48.506;8.870;2023-03-01T00:39:11;97091.19;;;-4.50;100.00
11001;BME280;5553;48.506;8.870;2023-03-01T00:41:39;97084.84;;;-4.45;100.00
11001;BME280;5553;48.506;8.870;2023-03-01T00:44:10;97087.38;;;-4.43;100.00
11001;BME280;5553;48.506;8.870;2023-03-01T00:46:39;97082.09;;;-4.42;100.00
11001;BME280;5553;48.506;8.870;2023-03-01T00:49:07;97081.38;;;-4.44;100.00
11001;BME280;5553;48.506;8.870;2023-03-01T00:51:35;97088.09;;;-4.41;100.00
11001;BME280;5553;48.506;8.870;2023-03-01T00:54:08;97076.97;;;-4.42;100.00
11001;BME280;5553;48.506;8.870;2023-03-01T00:56:37;97075.25;;;-4.57;100.00
11001;BME280;5553;48.506;8.870;2023-03-01T00:59:05;97077.66;;;-4.54;100.00
11001;BME280;5553;48.506;8.870;2023-03-01T01:01:36;97072.84;;;-4.60;100.00
11001;BME280;5553;48.506;8.870;2023-03-01T01:04:07;97069.94;;;-4.70;100.00
11001;BME280;5553;48.506;8.870;2023-03-01T01:06:37;97063.84;;;-4.69;100.00
11001;BME280;5553;48.506;8.870;2023-03-01T01:09:11;97074.41;;;-4.58;100.00
11001;BME280;5553;48.506;8.870;2023-03-01T01:11:43;97061.28;;;-4.53;100.00
11001;BME280;5553;48.506;8.870;2023-03-01T01:14:11;97061.72;;;-4.61;100.00
11001;BME280;5553;48.506;8.870;2023-03-01T01:16:42;97050.75;;;-4.64;100.00
11001;BME280;5553;48.506;8.870;2023-03-01T01:19:12;97054.38;;;-4.68;100.00
11001;BME280;5553;48.506;8.870;2023-03-01T01:21:43;97043.84;;;-4.80;100.00
11001;BME280;5553;48.506;8.870;2023-03-01T01:24:13;97053.25;;;-4.94;100.00
11001;BME280;5553;48.506;8.870;2023-03-01T01:26:42;97045.03;;;-5.01;100.00
11001;BME280;5553;48.506;8.870;2023-03-01T01:29:11;97049.75;;;-5.09;100.00
11001;BME280;5553;48.506;8.870;2023-03-01T01:31:43;97049.91;;;-4.96;100.00
11001;BME280;5553;48.506;8.870;2023-03-01T01:34:14;97042.88;;;-5.09;100.00
11001;BME280;5553;48.506;8.870;2023-03-01T01:36:43;97046.00;;;-5.04;100.00
11001;BME280;5553;48.506;8.870;2023-03-01T01:39:11;97045.25;;;-4.90;100.00
11001;BME280;5553;48.506;8.870;2023-03-01T01:41:40;97044.69;;;-4.95;100.00
11001;BME280;5553;48.506;8.870;2023-03-01T01:44:13;97046.69;;;-4.84;100.00
11001;BME280;5553;48.506;8.870;2023-03-01T01:46:46;97041.09;;;-4.92;100.00
11001;BME280;5553;48.506;8.870;2023-03-01T01:49:22;97034.56;;;-4.98;100.00
11001;BME280;5553;48.506;8.870;2023-03-01T01:51:57;97047.00;;;-4.90;100.00
11001;BME280;5553;48.506;8.870;2023-03-01T01:54:28;97045.25;;;-4.90;100.00
11001;BME280;5553;48.506;8.870;2023-03-01T01:57:01;97041.19;;;-4.94;100.00
11001;BME280;5553;48.506;8.870;2023-03-01T01:59:32;97038.88;;;-4.98;100.00
11001;BME280;5553;48.506;8.870;2023-03-01T02:02:04;97046.75;;;-4.86;100.00
11001;BME280;5553;48.506;8.870;2023-03-01T02:04:33;97032.41;;;-5.06;100.00
11001;BME280;5553;48.506;8.870;2023-03-01T02:07:04;97038.13;;;-4.85;100.00
11001;BME280;5553;48.506;8.870;2023-03-01T02:09:35;97036.38;;;-4.84;100.00
11001;BME280;5553;48.506;8.870;2023-03-01T02:12:04;97041.59;;;-4.86;100.00
11001;BME280;5553;48.506;8.870;2023-03-01T02:14:32;97040.34;;;-4.79;100.00
11001;BME280;5553;48.506;8.870;2023-03-01T02:17:03;97024.00;;;-4.78;100.00
11001;BME280;5553;48.506;8.870;2023-03-01T02:19:42;97023.47;;;-4.68;100.00
11001;BME280;5553;48.506;8.870;2023-03-01T02:22:18;97020.66;;;-4.64;100.00
11001;BME280;5553;48.506;8.870;2023-03-01T02:24:56;97017.66;;;-4.56;100.00
11001;BME280;5553;48.506;8.870;2023-03-01T02:27:34;97018.31;;;-4.53;100.00
11001;BME280;5553;48.506;8.870;2023-03-01T02:30:08;97027.19;;;-4.42;100.00
11001;BME280;5553;48.506;8.870;2023-03-01T02:32:39;97007.81;;;-4.34;100.00
11001;BME280;5553;48.506;8.870;2023-03-01T02:35:08;97020.06;;;-4.23;100.00
11001;BME280;5553;48.506;8.870;2023-03-01T02:37:37;97007.91;;;-4.21;100.00
11001;BME280;5553;48.506;8.870;2023-03-01T02:40:08;97003.03;;;-4.25;100.00
11001;BME280;5553;48.506;8.870;2023-03-01T02:42:45;97007.31;;;-4.10;100.00
11001;BME280;5553;48.506;8.870;2023-03-01T02:45:18;97007.69;;;-4.02;100.00
11001;BME280;5553;48.506;8.870;2023-03-01T02:47:46;97002.72;;;-4.05;100.00
11001;BME280;5553;48.506;8.870;2023-03-01T02:50:22;96998.84;;;-3.98;100.00
11001;BME280;5553;48.506;8.870;2023-03-01T02:52:57;96987.63;;;-3.97;100.00
11001;BME280;5553;48.506;8.870;2023-03-01T02:55:29;96991.47;;;-3.90;100.00
11001;BME280;5553;48.506;8.870;2023-03-01T02:58:01;96988.66;;;-3.85;100.00
11001;BME280;5553;48.506;8.870;2023-03-01T03:00:35;96982.97;;;-3.76;100.00
11001;BME280;5553;48.506;8.870;2023-03-01T03:03:05;96981.28;;;-3.77;100.00
11001;BME280;5553;48.506;8.870;2023-03-01T03:05:34;96983.41;;;-3.69;100.00
11001;BME280;5553;48.506;8.870;2023-03-01T03:08:03;96977.97;;;-3.65;100.00
11001;BME280;5553;48.506;8.870;2023-03-01T03:10:34;96979.34;;;-3.59;100.00
11001;BME280;5553;48.506;8.870;2023-03-01T03:13:07;96977.50;;;-3.57;100.00
11001;BME280;5553;48.506;8.870;2023-03-01T03:15:38;96971.25;;;-3.53;100.00
11001;BME280;5553;48.506;8.870;2023-03-01T03:18:10;96969.28;;;-3.49;100.00
11001;BME280;5553;48.506;8.870;2023-03-01T03:20:40;96973.81;;;-3.39;100.00
11001;BME280;5553;48.506;8.870;2023-03-01T03:23:09;96971.22;;;-3.39;100.00
11001;BME280;5553;48.506;8.870;2023-03-01T03:25:37;96971.31;;;-3.40;100.00
11001;BME280;5553;48.506;8.870;2023-03-01T03:28:06;96965.50;;;-3.29;100.00
11001;BME280;5553;48.506;8.870;2023-03-01T03:30:40;96962.72;;;-3.26;100.00
11001;BME280;5553;48.506;8.870;2023-03-01T03:33:10;96971.66;;;-3.18;100.00
11001;BME280;5553;48.506;8.870;2023-03-01T03:35:41;96972.84;;;-3.09;100.00
11001;BME280;5553;48.506;8.870;2023-03-01T03:38:11;96968.84;;;-3.00;100.00
11001;BME280;5553;48.506;8.870;2023-03-01T03:40:46;96963.78;;;-3.02;100.00
11001;BME280;5553;48.506;8.870;2023-03-01T03:43:15;96959.44;;;-3.01;100.00
11001;BME280;5553;48.506;8.870;2023-03-01T03:45:47;96961.56;;;-3.08;100.00
11001;BME280;5553;48.506;8.870;2023-03-01T03:48:17;96950.88;;;-3.02;100.00
11001;BME280;5553;48.506;8.870;2023-03-01T03:50:48;96954.88;;;-3.11;100.00
11001;BME280;5553;48.506;8.870;2023-03-01T03:53:17;96954.38;;;-3.03;100.00
11001;BME280;5553;48.506;8.870;2023-03-01T03:55:46;96945.66;;;-2.88;100.00
11001;BME280;5553;48.506;8.870;2023-03-01T03:58:17;96947.72;;;-2.93;100.00
11001;BME280;5553;48.506;8.870;2023-03-01T04:00:51;96951.81;;;-3.03;100.00
11001;BME280;5553;48.506;8.870;2023-03-01T04:03:21;96946.34;;;-2.98;100.00
11001;BME280;5553;48.506;8.870;2023-03-01T04:05:51;96950.59;;;-2.97;100.00
11001;BME280;5553;48.506;8.870;2023-03-01T04:08:20;96937.81;;;-2.86;100.00
11001;BME280;5553;48.506;8.870;2023-03-01T04:10:50;96950.16;;;-2.64;100.00
11001;BME280;5553;48.506;8.870;2023-03-01T04:13:21;96935.03;;;-2.83;100.00
11001;BME280;5553;48.506;8.870;2023-03-01T04:15:54;96933.97;;;-2.66;100.00
11001;BME280;5553;48.506;8.870;2023-03-01T04:18:23;96925.22;;;-2.78;100.00
11001;BME280;5553;48.506;8.870;2023-03-01T04:20:52;96933.59;;;-2.87;100.00
11001;BME280;5553;48.506;8.870;2023-03-01T04:23:21;96938.59;;;-2.98;100.00
11001;BME280;5553;48.506;8.870;2023-03-01T04:25:51;96929.81;;;-2.96;100.00
11001;BME280;5553;48.506;8.870;2023-03-01T04:28:23;96932.53;;;-2.97;100.00
11001;BME280;5553;48.506;8.870;2023-03-01T04:30:56;96932.94;;;-2.91;100.00
11001;BME280;5553;48.506;8.870;2023-03-01T04:33:25;96933.28;;;-2.82;100.00
11001;BME280;5553;48.506;8.870;2023-03-01T04:35:54;96932.66;;;-2.86;100.00
11001;BME280;5553;48.506;8.870;2023-03-01T04:38:22;96927.72;;;-2.76;100.00
11001;BME280;5553;48.506;8.870;2023-03-01T04:40:51;96922.22;;;-2.84;100.00
11001;BME280;5553;48.506;8.870;2023-03-01T04:43:19;96925.19;;;-2.91;100.00
11001;BME280;5553;48.506;8.870;2023-03-01T04:45:47;96923.72;;;-2.95;100.00
11001;BME280;5553;48.506;8.870;2023-03-01T04:48:18;96921.94;;;-2.80;100.00
11001;BME280;5553;48.506;8.870;2023-03-01T04:50:47;96916.53;;;-2.90;100.00
11001;BME280;5553;48.506;8.870;2023-03-01T04:53:15;96923.97;;;-2.85;100.00
11001;BME280;5553;48.506;8.870;2023-03-01T04:55:44;96921.94;;;-2.67;100.00
11001;BME280;5553;48.506;8.870;2023-03-01T04:58:12;96920.31;;;-2.68;100.00
11001;BME280;5553;48.506;8.870;2023-03-01T05:00:40;96915.91;;;-2.80;100.00
11001;BME280;5553;48.506;8.870;2023-03-01T05:03:08;96922.03;;;-2.81;100.00
11001;BME280;5553;48.506;8.870;2023-03-01T05:05:39;96916.13;;;-2.83;100.00
11001;BME280;5553;48.506;8.870;2023-03-01T05:08:09;96916.97;;;-2.83;100.00
11001;BME280;5553;48.506;8.870;2023-03-01T05:10:43;96916.13;;;-2.83;100.00
11001;BME280;5553;48.506;8.870;2023-03-01T05:13:12;96909.94;;;-2.81;100.00
11001;BME280;5553;48.506;8.870;2023-03-01T05:15:46;96909.59;;;-2.89;100.00
11001;BME280;5553;48.506;8.870;2023-03-01T05:18:14;96901.69;;;-2.73;100.00
11001;BME280;5553;48.506;8.870;2023-03-01T05:20:45;96902.91;;;-2.79;100.00
11001;BME280;5553;48.506;8.870;2023-03-01T05:23:14;96910.88;;;-2.82;100.00
11001;BME280;5553;48.506;8.870;2023-03-01T05:25:42;96912.06;;;-2.88;100.00
11001;BME280;5553;48.506;8.870;2023-03-01T05:28:11;96918.47;;;-2.53;100.00
11001;BME280;5553;48.506;8.870;2023-03-01T05:30:40;96922.69;;;-2.65;100.00
11001;BME280;5553;48.506;8.870;2023-03-01T05:33:08;96914.75;;;-2.62;100.00
11001;BME280;5553;48.506;8.870;2023-03-01T05:35:39;96910.56;;;-2.77;100.00
11001;BME280;5553;48.506;8.870;2023-03-01T05:38:11;96906.25;;;-2.77;100.00
11001;BME280;5553;48.506;8.870;2023-03-01T05:40:41;96908.56;;;-2.59;100.00
11001;BME280;5553;48.506;8.870;2023-03-01T05:43:10;96913.50;;;-2.56;100.00
11001;BME280;5553;48.506;8.870;2023-03-01T05:45:39;96908.75;;;-2.63;100.00
11001;BME280;5553;48.506;8.870;2023-03-01T05:48:08;96904.00;;;-2.56;100.00
11001;BME280;5553;48.506;8.870;2023-03-01T05:50:38;96903.78;;;-2.66;100.00
11001;BME280;5553;48.506;8.870;2023-03-01T05:53:12;96912.28;;;-2.51;100.00
11001;BME280;5553;48.506;8.870;2023-03-01T05:55:41;96905.97;;;-2.47;100.00
11001;BME280;5553;48.506;8.870;2023-03-01T05:58:12;96901.22;;;-2.53;100.00
11001;BME280;5553;48.506;8.870;2023-03-01T06:00:43;96900.09;;;-2.49;100.00
11001;BME280;5553;48.506;8.870;2023-03-01T06:03:13;96907.84;;;-2.49;100.00
11001;BME280;5553;48.506;8.870;2023-03-01T06:05:42;96908.97;;;-2.53;100.00
11001;BME280;5553;48.506;8.870;2023-03-01T06:08:13;96903.94;;;-2.29;100.00
11001;BME280;5553;48.506;8.870;2023-03-01T06:10:41;96905.69;;;-2.29;100.00
11001;BME280;5553;48.506;8.870;2023-03-01T06:13:09;96893.38;;;-2.39;100.00
11001;BME280;5553;48.506;8.870;2023-03-01T06:15:38;96899.47;;;-2.40;100.00
11001;BME280;5553;48.506;8.870;2023-03-01T06:18:06;96895.16;;;-2.39;100.00
11001;BME280;5553;48.506;8.870;2023-03-01T06:20:34;96894.53;;;-2.43;100.00
11001;BME280;5553;48.506;8.870;2023-03-01T06:23:03;96892.44;;;-2.38;100.00
11001;BME280;5553;48.506;8.870;2023-03-01T06:25:34;96884.28;;;-2.31;100.00
11001;BME280;5553;48.506;8.870;2023-03-01T06:28:02;96884.38;;;-2.33;100.00
11001;BME280;5553;48.506;8.870;2023-03-01T06:30:30;96878.81;;;-2.27;100.00
11001;BME280;5553;48.506;8.870;2023-03-01T06:32:59;96877.97;;;-2.27;100.00
11001;BME280;5553;48.506;8.870;2023-03-01T06:35:29;96886.28;;;-2.22;100.00
11001;BME280;5553;48.506;8.870;2023-03-01T06:37:58;96880.84;;;-2.19;100.00
11001;BME280;5553;48.506;8.870;2023-03-01T06:40:27;96891.00;;;-2.16;100.00
11001;BME280;5553;48.506;8.870;2023-03-01T06:42:58;96883.56;;;-2.08;100.00
11001;BME280;5553;48.506;8.870;2023-03-01T06:45:27;96877.97;;;-2.02;100.00
11001;BME280;5553;48.506;8.870;2023-03-01T06:48:01;96878.91;;;-2.03;100.00
11001;BME280;5553;48.506;8.870;2023-03-01T06:50:31;96880.25;;;-1.97;100.00
11001;BME280;5553;48.506;8.870;2023-03-01T06:52:59;96881.19;;;-2.11;100.00
11001;BME280;5553;48.506;8.870;2023-03-01T06:55:28;96889.34;;;-2.04;100.00
11001;BME280;5553;48.506;8.870;2023-03-01T06:58:00;96891.91;;;-1.92;100.00
11001;BME280;5553;48.506;8.870;2023-03-01T07:00:29;96890.09;;;-1.53;100.00
11001;BME280;5553;48.506;8.870;2023-03-01T07:02:58;96884.81;;;-1.14;100.00
11001;BME280;5553;48.506;8.870;2023-03-01T07:05:27;96868.88;;;-1.21;100.00
11001;BME280;5553;48.506;8.870;2023-03-01T07:07:56;96861.94;;;-0.97;100.00
11001;BME280;5553;48.506;8.870;2023-03-01T07:10:24;96854.22;;;-0.85;100.00
11001;BME280;5553;48.506;8.870;2023-03-01T07:12:54;96846.69;;;-0.77;100.00
11001;BME280;5553;48.506;8.870;2023-03-01T07:15:26;96852.09;;;-0.80;100.00
11001;BME280;5553;48.506;8.870;2023-03-01T07:17:55;96832.56;;;-0.73;100.00
11001;BME280;5553;48.506;8.870;2023-03-01T07:20:24;96827.22;;;-0.83;100.00
11001;BME280;5553;48.506;8.870;2023-03-01T07:22:52;96826.94;;;-0.67;100.00
11001;BME280;5553;48.506;8.870;2023-03-01T07:27:49;96830.28;;;-0.42;100.00
11001;BME280;5553;48.506;8.870;2023-03-01T07:30:19;96816.16;;;-0.16;100.00
11001;BME280;5553;48.506;8.870;2023-03-01T07:32:49;96816.66;;;0.01;100.00
11001;BME280;5553;48.506;8.870;2023-03-01T07:35:18;96815.31;;;0.29;100.00
11001;BME280;5553;48.506;8.870;2023-03-01T07:42:43;96806.47;;;0.20;100.00
11001;BME280;5553;48.506;8.870;2023-03-01T07:45:11;96795.81;;;0.45;100.00
11001;BME280;5553;48.506;8.870;2023-03-01T07:47:40;96786.00;;;0.81;100.00
11001;BME280;5553;48.506;8.870;2023-03-01T07:50:11;96783.84;;;1.39;100.00
11001;BME280;5553;48.506;8.870;2023-03-01T07:52:40;96782.47;;;1.66;99.44
11001;BME280;5553;48.506;8.870;2023-03-01T07:55:09;96765.50;;;1.62;97.42
11001;BME280;5553;48.506;8.870;2023-03-01T07:57:38;96748.53;;;1.16;95.45
11001;BME280;5553;48.506;8.870;2023-03-01T08:00:07;96748.25;;;1.61;94.52
11001;BME280;5553;48.506;8.870;2023-03-01T08:02:36;96759.31;;;2.34;93.73
11001;BME280;5553;48.506;8.870;2023-03-01T08:05:06;96723.81;;;1.83;90.66
11001;BME280;5553;48.506;8.870;2023-03-01T08:07:37;96726.06;;;1.66;90.51
11001;BME280;5553;48.506;8.870;2023-03-01T08:10:06;96717.28;;;1.88;89.83
11001;BME280;5553;48.506;8.870;2023-03-01T08:12:34;96721.03;;;2.05;88.69
11001;BME280;5553;48.506;8.870;2023-03-01T08:15:03;96731.34;;;2.46;89.01
11001;BME280;5553;48.506;8.870;2023-03-01T08:17:32;96726.69;;;2.40;87.14
11001;BME280;5553;48.506;8.870;2023-03-01T08:20:00;96714.22;;;2.43;86.71
11001;BME280;5553;48.506;8.870;2023-03-01T08:22:28;96702.38;;;2.10;85.42
11001;BME280;5553;48.506;8.870;2023-03-01T08:24:59;96715.03;;;2.63;85.68
11001;BME280;5553;48.506;8.870;2023-03-01T08:27:27;96693.50;;;2.42;83.81
11001;BME280;5553;48.506;8.870;2023-03-01T08:29:56;96701.03;;;2.83;83.65
11001;BME280;5553;48.506;8.870;2023-03-01T08:32:24;96692.66;;;2.22;83.77
11001;BME280;5553;48.506;8.870;2023-03-01T08:34:52;96710.53;;;2.36;84.11
11001;BME280;5553;48.506;8.870;2023-03-01T08:37:20;96695.97;;;2.72;81.97
11001;BME280;5553;48.506;8.870;2023-03-01T08:39:48;96704.06;;;3.55;81.97
11001;BME280;5553;48.506;8.870;2023-03-01T08:42:19;96694.34;;;2.91;81.29
11001;BME280;5553;48.506;8.870;2023-03-01T08:44:47;96681.03;;;2.35;81.51
11001;BME280;5553;48.506;8.870;2023-03-01T08:47:16;96688.13;;;2.14;82.21
11001;BME280;5553;48.506;8.870;2023-03-01T08:49:44;96702.63;;;1.97;83.16
11001;BME280;5553;48.506;8.870;2023-03-01T08:52:12;96691.75;;;1.42;83.34
11001;BME280;5553;48.506;8.870;2023-03-01T08:54:41;96706.78;;;2.09;84.26
11001;BME280;5553;48.506;8.870;2023-03-01T08:57:09;96700.88;;;2.07;83.45
11001;BME280;5553;48.506;8.870;2023-03-01T08:59:40;96690.25;;;2.40;82.46
11001;BME280;5553;48.506;8.870;2023-03-01T09:02:12;96695.53;;;1.99;82.31
11001;BME280;5553;48.506;8.870;2023-03-01T09:04:40;96695.81;;;2.25;83.09
11001;BME280;5553;48.506;8.870;2023-03-01T09:07:09;96678.03;;;2.69;80.81
11001;BME280;5553;48.506;8.870;2023-03-01T09:09:38;96674.81;;;3.51;79.76
11001;BME280;5553;48.506;8.870;2023-03-01T09:12:06;96660.00;;;4.07;77.60
11001;BME280;5553;48.506;8.870;2023-03-01T09:14:34;96641.56;;;3.63;76.62
11001;BME280;5553;48.506;8.870;2023-03-01T09:17:06;96630.81;;;4.12;75.17
11001;BME280;5553;48.506;8.870;2023-03-01T09:19:34;96627.47;;;3.46;75.96
11001;BME280;5553;48.506;8.870;2023-03-01T09:22:03;96614.75;;;3.33;74.21
11001;BME280;5553;48.506;8.870;2023-03-01T09:24:31;96604.44;;;3.69;73.34
11001;BME280;5553;48.506;8.870;2023-03-01T09:26:59;96622.47;;;4.26;74.19
11001;BME280;5553;48.506;8.870;2023-03-01T09:29:28;96615.97;;;4.12;73.20
11001;BME280;5553;48.506;8.870;2023-03-01T09:31:56;96605.88;;;3.82;72.42
11001;BME280;5553;48.506;8.870;2023-03-01T09:34:27;96614.78;;;3.61;72.97
11001;BME280;5553;48.506;8.870;2023-03-01T09:36:57;96625.66;;;3.56;73.73
11001;BME280;5553;48.506;8.870;2023-03-01T09:39:27;96609.16;;;4.37;71.03
11001;BME280;5553;48.506;8.870;2023-03-01T09:41:59;96607.97;;;3.13;72.72
11001;BME280;5553;48.506;8.870;2023-03-01T09:44:34;96631.06;;;3.08;74.16
11001;BME280;5553;48.506;8.870;2023-03-01T09:47:04;96625.44;;;3.68;73.10
11001;BME280;5553;48.506;8.870;2023-03-01T09:49:39;96607.56;;;2.61;73.54
11001;BME280;5553;48.506;8.870;2023-03-01T09:52:20;96629.75;;;2.75;75.22
11001;BME280;5553;48.506;8.870;2023-03-01T09:54:54;96636.44;;;2.87;75.73
11001;BME280;5553;48.506;8.870;2023-03-01T09:57:30;96645.03;;;3.07;75.42
11001;BME280;5553;48.506;8.870;2023-03-01T10:00:16;96630.66;;;3.40;74.35
11001;BME280;5553;48.506;8.870;2023-03-01T10:02:49;96639.69;;;4.37;73.11
11001;BME280;5553;48.506;8.870;2023-03-01T10:05:31;96622.41;;;5.06;70.45
11001;BME280;5553;48.506;8.870;2023-03-01T10:08:29;96586.34;;;3.58;70.65
11001;BME280;5553;48.506;8.870;2023-03-01T10:11:02;96606.56;;;3.84;71.29
11001;BME280;5553;48.506;8.870;2023-03-01T10:13:37;96612.97;;;4.43;71.19
11001;BME280;5553;48.506;8.870;2023-03-01T10:16:13;96585.97;;;4.52;69.02
11001;BME280;5553;48.506;8.870;2023-03-01T10:18:43;96576.94;;;5.33;67.65
11001;BME280;5553;48.506;8.870;2023-03-01T10:21:18;96562.59;;;5.37;66.51
11001;BME280;5553;48.506;8.870;2023-03-01T10:23:50;96562.19;;;6.33;65.39
11001;BME280;5553;48.506;8.870;2023-03-01T10:26:30;96564.13;;;6.31;65.05
11001;BME280;5553;48.506;8.870;2023-03-01T10:29:04;96553.88;;;4.94;66.23
11001;BME280;5553;48.506;8.870;2023-03-01T10:31:38;96573.16;;;5.69;65.97
11001;BME280;5553;48.506;8.870;2023-03-01T10:34:10;96564.59;;;6.18;64.86
11001;BME280;5553;48.506;8.870;2023-03-01T10:36:42;96545.50;;;7.22;61.89
11001;BME280;5553;48.506;8.870;2023-03-01T10:39:14;96519.78;;;6.29;61.65
11001;BME280;5553;48.506;8.870;2023-03-01T10:41:54;96551.44;;;8.10;61.53
11001;BME280;5553;48.506;8.870;2023-03-01T10:44:41;96505.63;;;6.63;59.67
11001;BME280;5553;48.506;8.870;2023-03-01T10:47:15;96525.69;;;7.11;60.10
11001;BME280;5553;48.506;8.870;2023-03-01T10:49:56;96502.94;;;5.57;61.35
11001;BME280;5553;48.506;8.870;2023-03-01T10:52:31;96509.81;;;4.73;63.46
11001;BME280;5553;48.506;8.870;2023-03-01T10:55:02;96557.25;;;6.54;63.65
11001;BME280;5553;48.506;8.870;2023-03-01T10:57:34;96537.00;;;7.12;61.86
11001;BME280;5553;48.506;8.870;2023-03-01T11:00:19;96514.75;;;7.70;60.40
11001;BME280;5553;48.506;8.870;2023-03-01T11:02:50;96483.75;;;6.95;59.32
11001;BME280;5553;48.506;8.870;2023-03-01T11:05:22;96494.47;;;7.25;59.33
11001;BME280;5553;48.506;8.870;2023-03-01T11:07:57;96485.06;;;6.99;59.01
11001;BME280;5553;48.506;8.870;2023-03-01T11:10:28;96498.41;;;7.60;58.65
11001;BME280;5553;48.506;8.870;2023-03-01T11:13:07;96503.53;;;8.22;57.85
11001;BME280;5553;48.506;8.870;2023-03-01T11:15:36;96440.28;;;7.01;56.79
11001;BME280;5553;48.506;8.870;2023-03-01T11:18:04;96480.88;;;7.52;58.16
11001;BME280;5553;48.506;8.870;2023-03-01T11:20:34;96459.00;;;5.85;59.54
11001;BME280;5553;48.506;8.870;2023-03-01T11:23:10;96472.13;;;6.89;58.92
11001;BME280;5553;48.506;8.870;2023-03-01T11:25:43;96456.53;;;7.04;57.60
11001;BME280;5553;48.506;8.870;2023-03-01T11:28:14;96473.59;;;8.08;57.23
11001;BME280;5553;48.506;8.870;2023-03-01T11:30:48;96418.69;;;6.35;57.69
11001;BME280;5553;48.506;8.870;2023-03-01T11:33:24;96450.41;;;8.12;56.62
11001;BME280;5553;48.506;8.870;2023-03-01T11:36:06;96463.38;;;8.14;57.51
11001;BME280;5553;48.506;8.870;2023-03-01T11:38:38;96430.72;;;7.70;56.81
11001;BME280;5553;48.506;8.870;2023-03-01T11:41:11;96450.44;;;8.65;56.00
11001;BME280;5553;48.506;8.870;2023-03-01T11:43:47;96420.69;;;8.94;54.13
11001;BME280;5553;48.506;8.870;2023-03-01T11:46:40;96412.66;;;8.28;54.79
11001;BME280;5553;48.506;8.870;2023-03-01T11:49:33;96425.56;;;9.27;53.94
11001;BME280;5553;48.506;8.870;2023-03-01T11:52:09;96466.22;;;11.09;52.49
11001;BME280;5553;48.506;8.870;2023-03-01T11:54:53;96403.91;;;8.80;53.61
11001;BME280;5553;48.506;8.870;2023-03-01T11:57:43;96397.25;;;8.99;53.40
11001;BME280;5553;48.506;8.870;2023-03-01T12:00:24;96391.88;;;8.41;53.65
11001;BME280;5553;48.506;8.870;2023-03-01T12:03:16;96401.19;;;8.73;53.64
11001;BME280;5553;48.506;8.870;2023-03-01T12:06:05;96391.66;;;8.58;53.45
11001;BME280;5553;48.506;8.870;2023-03-01T12:08:42;96402.59;;;9.06;53.69
11001;BME280;5553;48.506;8.870;2023-03-01T12:11:23;96396.63;;;9.33;52.66
11001;BME280;5553;48.506;8.870;2023-03-01T12:14:17;96409.25;;;10.52;51.61
11001;BME280;5553;48.506;8.870;2023-03-01T12:17:02;96371.06;;;10.82;49.82
11001;BME280;5553;48.506;8.870;2023-03-01T12:22:51;96344.28;;;9.66;49.80
11001;BME280;5553;48.506;8.870;2023-03-01T12:25:28;96371.06;;;10.82;49.73
11001;BME280;5553;48.506;8.870;2023-03-01T12:34:16;96348.41;;;11.01;48.80
11001;BME280;5553;48.506;8.870;2023-03-01T12:37:01;96332.09;;;10.15;49.48
11001;BME280;5553;48.506;8.870;2023-03-01T12:39:45;96348.34;;;11.82;48.17
11001;BME280;5553;48.506;8.870;2023-03-01T12:42:25;96312.59;;;10.37;48.46
11001;BME280;5553;48.506;8.870;2023-03-01T12:45:30;96320.75;;;10.90;49.01
11001;BME280;5553;48.506;8.870;2023-03-01T12:48:13;96334.31;;;11.55;49.01
11001;BME280;5553;48.506;8.870;2023-03-01T12:50:47;96328.03;;;11.83;47.83
11001;BME280;5553;48.506;8.870;2023-03-01T12:53:26;96263.94;;;10.12;48.09
11001;BME280;5553;48.506;8.870;2023-03-01T12:55:58;96294.81;;;11.14;47.72
11001;BME280;5553;48.506;8.870;2023-03-01T12:58:31;96269.44;;;10.52;47.62
11001;BME280;5553;48.506;8.870;2023-03-01T13:01:12;96322.75;;;12.16;47.64
11001;BME280;5553;48.506;8.870;2023-03-01T13:03:56;96266.00;;;10.51;47.35
11001;BME280;5553;48.506;8.870;2023-03-01T13:06:33;96271.00;;;10.87;47.10
11001;BME280;5553;48.506;8.870;2023-03-01T13:09:14;96274.53;;;11.21;46.30
11001;BME280;5553;48.506;8.870;2023-03-01T13:11:48;96274.94;;;11.45;46.37
11001;BME280;5553;48.506;8.870;2023-03-01T13:14:35;96268.97;;;10.89;47.38
11001;BME280;5553;48.506;8.870;2023-03-01T13:17:39;96306.47;;;11.79;47.41
11001;BME280;5553;48.506;8.870;2023-03-01T13:20:13;96288.59;;;12.01;46.40
11001;BME280;5553;48.506;8.870;2023-03-01T13:22:42;96268.84;;;11.31;46.77
11001;BME280;5553;48.506;8.870;2023-03-01T13:25:14;96289.56;;;12.27;45.89
11001;BME280;5553;48.506;8.870;2023-03-01T13:27:43;96272.50;;;11.23;47.32
11001;BME280;5553;48.506;8.870;2023-03-01T13:30:42;96304.25;;;11.76;48.06
11001;BME280;5553;48.506;8.870;2023-03-01T13:33:42;96291.22;;;11.48;47.72
11001;BME280;5553;48.506;8.870;2023-03-01T13:36:13;96291.59;;;12.38;46.39
11001;BME280;5553;48.506;8.870;2023-03-01T13:39:05;96271.31;;;11.52;47.16
11001;BME280;5553;48.506;8.870;2023-03-01T13:41:54;96242.50;;;10.21;47.91
11001;BME280;5553;48.506;8.870;2023-03-01T13:44:25;96259.00;;;9.95;48.67
11001;BME280;5553;48.506;8.870;2023-03-01T13:46:58;96297.06;;;11.17;48.19
11001;BME280;5553;48.506;8.870;2023-03-01T13:49:29;96280.66;;;10.60;48.16
11001;BME280;5553;48.506;8.870;2023-03-01T13:52:03;96249.78;;;10.54;46.72